Nearby METAR Reports

Aktualna pogoda na lotniskach (dane METAR)

 

EPGD - Gdansk/Rebiechow, Poland
Distance from station: ENE 27mi, 44km
Updated: Tue, 28-Jan-2020 5:00am PST
Light rain, Mostly cloudy
Light rain, Mostly cloudy
 Wind from S
Wind: S 12 mph , 19 km/h
Temperature: 37°F , 3°C
Wind Chill: 29°F , -2°C
Dew Point: 36°F , 2°C
Humidity: 93%
Barometer: 29.26 inHg , 991 hPa
Summary: Light Rain
Clouds: Mostly Cloudy
Visibility: 4 miles , 6 km
Cloud details: Mostly Cloudy 400 ft
2020/01/28 13:00 EPGD 281300Z 17010KT 6000 -RA BKN004 03/02 Q0991
EPSC - Szczecin/Golenio, Poland
Distance from station: WSW 128mi, 205km
Updated: Tue, 28-Jan-2020 5:00am PST
Mostly Cloudy
Mostly Cloudy
 Wind from S
Wind: S 8 mph , 13 km/h
Temperature: 45°F , 7°C
Wind Chill: 41°F , 5°C
Dew Point: 41°F , 5°C
Humidity: 87%
Barometer: 29.23 inHg , 990 hPa
Clouds: Mostly Cloudy
Visibility: 6 miles , 10 km
Cloud details: Few Clouds 1000 ft
Mostly Cloudy 1200 ft
2020/01/28 13:00 EPSC 281300Z 18007KT 150V210 9999 FEW010 BKN012 07/05 Q0990
 
EPPO - Poznan/Lawica, Poland
Distance from station: SSW 131mi, 210km
Updated: Tue, 28-Jan-2020 5:00am PST
Few Clouds
Few Clouds
 Wind from S
Wind: S 13 mph , 20 km/h
Temperature: 45°F , 7°C
Wind Chill: 39°F , 4°C
Dew Point: 39°F , 4°C
Humidity: 81%
Barometer: 29.32 inHg , 993 hPa
Clouds: Few Clouds
Visibility: 6 miles , 10 km
Cloud details: Few Clouds 1100 ft
2020/01/28 13:00 EPPO 281300Z 19011KT 9999 FEW011 07/04 Q0993
EPLL - Lodz/Lublinek, Poland
Distance from station: SSE 184mi, 296km
Updated: Tue, 28-Jan-2020 5:00am PST
Overcast
Overcast
 Wind from S
Wind: S 9 mph , 15 km/h
Temperature: 39°F , 4°C
Wind Chill: 33°F , 1°C
Dew Point: 36°F , 2°C
Humidity: 87%
Barometer: 29.44 inHg , 997 hPa
Clouds: Overcast
Visibility: 6 miles , 10 km
Cloud details: Few Clouds 1000 ft
Overcast 3200 ft
2020/01/28 13:00 EPLL 281300Z 19008KT 140V240 9999 FEW010 OVC032 04/02 Q0997
 
EPWA - Warsaw/Okecie, Poland
Distance from station: SE 191mi, 307km
Updated: Tue, 28-Jan-2020 5:00am PST
Light rain, Mostly cloudy
Light rain, Mostly cloudy
 Wind from SSE
Wind: SSE 12 mph , 19 km/h
Temperature: 39°F , 4°C
Wind Chill: 32°F , 0°C
Dew Point: 37°F , 3°C
Humidity: 93%
Barometer: 29.47 inHg , 998 hPa
Summary: Light Rain
Clouds: Mostly Cloudy
Visibility: 6 miles , 10 km
Cloud details: Few Clouds 2000 ft
Mostly Cloudy 3000 ft
2020/01/28 13:00 EPWA 281300Z 16010KT 9999 -RA FEW020 BKN030 04/03 Q0998 NOSIG
EPWR - Wroclaw/Strachow, Poland
Distance from station: S 219mi, 352km
Updated: Tue, 28-Jan-2020 5:00am PST
Few Clouds
Few Clouds
 Wind from SSW
Wind: SSW 8 mph , 13 km/h
Temperature: 45°F , 7°C
Wind Chill: 41°F , 5°C
Dew Point: 36°F , 2°C
Humidity: 71%
Barometer: 29.41 inHg , 996 hPa
Clouds: Few Clouds
Visibility: 6 miles , 10 km
Cloud details: Few Clouds 2500 ft
2020/01/28 13:00 EPWR 281300Z 21007KT 170V250 9999 FEW025 07/02 Q0996

Metar display script from Saratoga-Weather.org